Time;durP1;ratioP1;P1;durP2;ratioP2;P2;SDS_P1;SDS_P2;PMS_P1;PMS_P2;Temp;Humidity;BMP_temperature;BMP_pressure;BME280_temperature;BME280_humidity;BME280_pressure;Samples;Min_cycle;Max_cycle;Signal;HPM_P1;HPM_P2
2023/09/27 00:00:09;;;;;;;10.80;6.80;;;;;;;10.89;100.00;99283.53;4993242;28;20026;-75
2023/09/27 00:02:34;;;;;;;16.73;7.70;;;;;;;10.90;100.00;99290.63;4993455;28;20018;-76
2023/09/27 00:04:59;;;;;;;18.02;7.55;;;;;;;10.93;100.00;99291.06;4987745;28;20035;-76
2023/09/27 00:07:25;;;;;;;11.07;6.50;;;;;;;10.90;100.00;99290.63;4983292;28;20054;-76
2023/09/27 00:09:51;;;;;;;10.18;6.57;;;;;;;10.78;100.00;99284.06;4991776;28;20033;-75
2023/09/27 00:12:18;;;;;;;10.05;6.57;;;;;;;10.71;100.00;99278.56;5008629;28;20547;-75
2023/09/27 00:14:43;;;;;;;10.73;6.70;;;;;;;10.79;100.00;99283.84;4990353;28;20123;-76
2023/09/27 00:17:08;;;;;;;14.63;6.85;;;;;;;10.94;100.00;99300.03;4986418;28;20117;-76
2023/09/27 00:19:34;;;;;;;8.90;5.90;;;;;;;10.65;100.00;99263.94;4973813;28;20529;-75
2023/09/27 00:21:59;;;;;;;9.98;6.13;;;;;;;10.74;100.00;99299.81;4987942;28;20026;-76
2023/09/27 00:24:25;;;;;;;11.85;5.93;;;;;;;10.44;100.00;99259.34;4990539;28;20457;-76
2023/09/27 00:26:50;;;;;;;13.15;6.47;;;;;;;10.65;100.00;99293.69;4993031;28;20553;-76
2023/09/27 00:29:15;;;;;;;11.63;6.80;;;;;;;10.74;100.00;99299.81;4991640;28;20023;-76
2023/09/27 00:31:41;;;;;;;13.75;7.20;;;;;;;10.67;100.00;99283.53;4992711;28;20026;-75
2023/09/27 00:34:06;;;;;;;10.55;6.05;;;;;;;10.59;100.00;99264.72;4991571;28;20041;-76
2023/09/27 00:36:31;;;;;;;11.30;5.82;;;;;;;10.81;100.00;99294.47;4991263;28;20073;-75
2023/09/27 00:38:59;;;;;;;12.13;5.20;;;;;;;10.74;100.00;99284.44;5010334;23;20084;-58
2023/09/27 00:41:24;;;;;;;13.32;4.82;;;;;;;10.67;100.00;99286.22;5027094;28;20029;-60
2023/09/27 00:43:49;;;;;;;8.23;4.47;;;;;;;10.62;100.00;99279.72;5031907;28;20033;-59
2023/09/27 00:46:18;;;;;;;7.78;4.63;;;;;;;10.54;100.00;99280.69;5028932;28;20036;-60
2023/09/27 00:48:44;;;;;;;7.18;4.65;;;;;;;10.48;100.00;99274.16;5040541;28;22278;-60
2023/09/27 00:51:09;;;;;;;7.63;4.30;;;;;;;10.57;100.00;99280.28;5015042;28;20025;-60
2023/09/27 00:53:37;;;;;;;7.18;4.60;;;;;;;10.52;100.00;99290.84;5006273;28;20038;-60
2023/09/27 00:56:04;;;;;;;6.45;3.92;;;;;;;10.56;100.00;99286.75;5003731;28;20045;-60
2023/09/27 00:58:32;;;;;;;9.85;4.20;;;;;;;10.45;100.00;99276.41;5000406;28;20030;-59
2023/09/27 01:00:59;;;;;;;8.80;4.57;;;;;;;10.46;100.00;99280.81;4992885;28;20029;-60
2023/09/27 01:03:25;;;;;;;13.43;4.53;;;;;;;10.38;100.00;99280.91;4996712;28;20091;-60
2023/09/27 01:05:50;;;;;;;7.95;5.50;;;;;;;10.28;100.00;99287.44;5005557;28;20380;-60
2023/09/27 01:08:16;;;;;;;7.30;4.80;;;;;;;10.40;100.00;99292.38;5001004;28;20035;-60
2023/09/27 01:10:44;;;;;;;9.55;4.57;;;;;;;10.49;100.00;99291.22;5003595;28;20019;-60
2023/09/27 01:13:10;;;;;;;9.52;5.50;;;;;;;10.43;100.00;99292.84;5010326;28;20474;-60
2023/09/27 01:15:36;;;;;;;8.80;5.93;;;;;;;10.51;100.00;99302.72;5010371;28;20029;-60
2023/09/27 01:18:02;;;;;;;10.18;5.60;;;;;;;10.31;100.00;99306.00;5014638;28;20029;-60
2023/09/27 01:20:29;;;;;;;10.65;6.18;;;;;;;10.15;100.00;99300.78;5004519;28;20034;-59
2023/09/27 01:22:58;;;;;;;11.13;6.78;;;;;;;10.05;100.00;99306.47;4995489;28;20034;-59
2023/09/27 01:25:31;;;;;;;10.75;6.82;;;;;;;10.04;100.00;99301.25;5008095;28;20049;-60
2023/09/27 01:28:02;;;;;;;11.65;7.10;;;;;;;10.06;100.00;99301.88;5010618;28;20029;-60
2023/09/27 01:30:33;;;;;;;9.05;6.40;;;;;;;10.05;100.00;99294.81;5012814;28;20094;-60
2023/09/27 01:33:05;;;;;;;8.90;5.35;;;;;;;10.09;100.00;99299.66;4998673;28;20030;-60
2023/09/27 01:35:41;;;;;;;7.60;4.93;;;;;;;10.05;100.00;99292.13;5006425;28;20084;-60
2023/09/27 01:38:08;;;;;;;6.85;4.65;;;;;;;10.00;100.00;99300.78;4999982;28;20503;-59
2023/09/27 01:40:44;;;;;;;6.80;4.45;;;;;;;10.01;100.00;99309.75;5007143;28;20066;-59
2023/09/27 01:43:11;;;;;;;9.93;5.05;;;;;;;9.96;100.00;99309.47;5014851;28;20038;-60
2023/09/27 01:45:37;;;;;;;13.00;5.10;;;;;;;9.93;100.00;99307.13;5013579;28;20053;-60
2023/09/27 01:48:03;;;;;;;9.10;5.00;;;;;;;9.94;100.00;99300.72;5010770;28;20056;-60
2023/09/27 01:50:31;;;;;;;7.35;4.70;;;;;;;9.85;100.00;99303.50;4996208;28;20390;-60
2023/09/27 01:52:57;;;;;;;9.52;4.80;;;;;;;9.84;100.00;99296.41;5015248;28;20543;-60
2023/09/27 01:55:23;;;;;;;9.90;4.85;;;;;;;9.86;100.00;99302.47;5014432;28;20425;-60
2023/09/27 01:57:49;;;;;;;10.07;4.95;;;;;;;9.84;100.00;99287.47;5004475;28;20117;-60
2023/09/27 02:00:17;;;;;;;10.02;5.22;;;;;;;9.87;100.00;99297.91;5008127;28;20121;-60
2023/09/27 02:03:00;;;;;;;8.43;5.43;;;;;;;9.85;100.00;99291.84;5015061;28;20032;-60
2023/09/27 02:05:28;;;;;;;9.95;5.25;;;;;;;9.94;100.00;99303.41;5000890;28;20038;-60
2023/09/27 02:07:53;;;;;;;7.50;5.20;;;;;;;9.83;100.00;99310.97;5007259;28;20022;-59
2023/09/27 02:10:20;;;;;;;9.10;5.72;;;;;;;9.73;100.00;99309.56;5003798;28;20121;-60
2023/09/27 02:12:45;;;;;;;13.20;6.10;;;;;;;9.60;100.00;99312.91;5013986;28;20049;-60
2023/09/27 02:15:12;;;;;;;8.23;6.05;;;;;;;9.53;100.00;99317.34;5005858;28;20026;-60
2023/09/27 02:17:39;;;;;;;12.27;7.03;;;;;;;9.49;100.00;99322.28;5014471;28;20028;-60
2023/09/27 02:20:13;;;;;;;11.20;7.15;;;;;;;9.42;100.00;99318.63;5017071;28;20034;-60
2023/09/27 02:22:40;;;;;;;8.40;6.15;;;;;;;9.45;100.00;99315.56;5014694;28;20537;-59
2023/09/27 02:25:09;;;;;;;8.43;6.00;;;;;;;9.60;100.00;99323.69;5013254;28;20022;-59
2023/09/27 02:27:36;;;;;;;8.15;6.03;;;;;;;9.57;100.00;99324.91;5014696;28;20033;-60
2023/09/27 02:30:03;;;;;;;8.50;6.65;;;;;;;9.54;100.00;99316.34;5016816;28;20021;-60
2023/09/27 02:32:29;;;;;;;10.10;7.38;;;;;;;9.47;100.00;99310.81;5014316;28;20124;-59
2023/09/27 02:34:54;;;;;;;10.82;8.05;;;;;;;9.65;100.00;99318.59;5013754;28;20033;-60
2023/09/27 02:37:20;;;;;;;9.85;8.10;;;;;;;9.57;100.00;99310.56;5013255;28;20030;-60
2023/09/27 02:39:46;;;;;;;10.30;7.57;;;;;;;9.53;100.00;99317.34;5014331;28;20113;-59
2023/09/27 02:42:11;;;;;;;9.57;6.45;;;;;;;9.50;100.00;99312.31;5001726;28;20022;-60
2023/09/27 02:44:37;;;;;;;8.60;6.22;;;;;;;9.44;100.00;99317.44;5013026;28;20076;-60
2023/09/27 02:47:02;;;;;;;8.95;5.70;;;;;;;9.36;100.00;99322.09;5006694;28;20028;-60
2023/09/27 02:49:28;;;;;;;8.25;6.25;;;;;;;9.37;100.00;99311.06;5005237;28;20466;-59
2023/09/27 02:51:54;;;;;;;11.40;6.15;;;;;;;9.37;100.00;99308.38;5010947;28;20539;-60
2023/09/27 02:54:20;;;;;;;6.72;5.18;;;;;;;9.33;100.00;99303.56;5010386;28;20027;-59
2023/09/27 02:56:45;;;;;;;10.43;6.28;;;;;;;9.34;100.00;99299.81;5001053;28;20060;-59
2023/09/27 02:59:11;;;;;;;16.90;6.88;;;;;;;9.42;100.00;99295.16;5004303;28;20389;-60
2023/09/27 03:01:40;;;;;;;9.90;6.57;;;;;;;9.39;100.00;99290.13;4997486;28;20026;-59
2023/09/27 03:04:06;;;;;;;11.40;6.35;;;;;;;9.40;100.00;99296.38;5013385;28;20065;-60
2023/09/27 03:06:33;;;;;;;10.18;6.03;;;;;;;9.32;100.00;99293.75;5013108;28;20037;-60
2023/09/27 03:08:58;;;;;;;9.77;5.85;;;;;;;9.28;100.00;99296.00;5013905;28;20022;-59
2023/09/27 03:11:24;;;;;;;12.13;5.95;;;;;;;9.24;100.00;99288.44;5009484;28;20026;-60
2023/09/27 03:13:49;;;;;;;9.38;6.70;;;;;;;9.13;100.00;99273.50;5012589;28;20046;-59
2023/09/27 03:16:14;;;;;;;11.15;6.13;;;;;;;9.09;100.00;99289.25;5003213;28;20040;-60
2023/09/27 03:18:40;;;;;;;12.88;6.95;;;;;;;9.02;100.00;99292.84;5012766;28;20029;-60
2023/09/27 03:21:05;;;;;;;10.63;7.25;;;;;;;8.96;100.00;99302.47;5006944;28;20014;-59
2023/09/27 03:23:30;;;;;;;12.18;6.85;;;;;;;8.88;100.00;99298.03;5001599;28;20478;-59
2023/09/27 03:25:56;;;;;;;10.57;6.80;;;;;;;8.82;100.00;99298.72;5008338;28;20025;-59
2023/09/27 03:28:22;;;;;;;8.32;6.30;;;;;;;8.77;100.00;99298.41;5007769;28;20038;-60
2023/09/27 03:30:47;;;;;;;9.48;6.80;;;;;;;8.75;100.00;99295.06;5007254;28;20020;-60
2023/09/27 03:33:13;;;;;;;8.02;6.18;;;;;;;8.71;100.00;99299.16;5010871;28;20116;-60
2023/09/27 03:35:39;;;;;;;8.55;5.95;;;;;;;8.71;100.00;99299.97;4995460;28;20022;-59
2023/09/27 03:38:05;;;;;;;8.63;6.22;;;;;;;8.72;100.00;99303.50;5012753;28;20112;-60
2023/09/27 03:40:31;;;;;;;12.02;6.95;;;;;;;8.63;100.00;99300.03;5011995;28;20022;-60
2023/09/27 03:42:56;;;;;;;12.85;6.18;;;;;;;8.62;100.00;99308.28;4993726;28;20104;-59
2023/09/27 03:45:21;;;;;;;11.07;7.60;;;;;;;8.68;100.00;99302.22;4999246;28;20029;-59
2023/09/27 03:47:47;;;;;;;13.55;7.72;;;;;;;8.70;100.00;99316.38;5012652;28;20429;-60
2023/09/27 03:50:13;;;;;;;8.60;6.65;;;;;;;8.66;100.00;99320.41;5012398;28;20022;-60
2023/09/27 03:52:41;;;;;;;9.10;6.50;;;;;;;8.58;100.00;99328.56;5013169;28;20030;-60
2023/09/27 03:55:11;;;;;;;14.18;6.20;;;;;;;8.60;100.00;99326.53;4997742;28;20371;-59
2023/09/27 03:57:37;;;;;;;14.13;7.07;;;;;;;8.71;100.00;99328.81;5012408;28;20040;-59
2023/09/27 04:00:12;;;;;;;10.80;6.65;;;;;;;8.73;100.00;99338.41;5003167;28;20034;-62
2023/09/27 04:02:37;;;;;;;10.70;6.57;;;;;;;8.63;100.00;99336.97;5017317;28;20036;-60
2023/09/27 04:05:04;;;;;;;10.90;6.93;;;;;;;8.58;100.00;99329.41;5011198;28;20034;-60
2023/09/27 04:07:29;;;;;;;8.98;6.43;;;;;;;8.57;100.00;99333.13;5012790;28;20457;-60
2023/09/27 04:09:55;;;;;;;13.95;7.03;;;;;;;8.53;100.00;99329.91;5010527;28;20088;-60
2023/09/27 04:12:20;;;;;;;11.73;7.38;;;;;;;8.52;100.00;99330.94;5000148;28;20030;-60
2023/09/27 04:14:45;;;;;;;10.07;6.80;;;;;;;8.54;100.00;99338.84;4993143;28;20477;-60
2023/09/27 04:17:11;;;;;;;9.80;6.72;;;;;;;8.52;100.00;99338.22;5006654;28;20056;-60
2023/09/27 04:19:36;;;;;;;17.85;7.60;;;;;;;8.48;100.00;99340.41;5010300;28;20160;-60
2023/09/27 04:22:01;;;;;;;10.85;7.07;;;;;;;8.45;100.00;99340.75;5009299;28;20025;-60
2023/09/27 04:24:27;;;;;;;17.92;8.10;;;;;;;8.49;100.00;99334.00;5005449;28;20032;-60
2023/09/27 04:26:53;;;;;;;16.83;8.60;;;;;;;8.53;100.00;99342.56;5011432;28;20053;-60
2023/09/27 04:29:19;;;;;;;13.68;7.90;;;;;;;8.50;100.00;99338.38;5015124;28;20025;-59
2023/09/27 04:31:45;;;;;;;13.90;8.32;;;;;;;8.46;100.00;99342.47;5011029;28;20022;-60
2023/09/27 04:34:11;;;;;;;15.15;8.85;;;;;;;8.47;100.00;99348.69;4995145;28;20024;-60
2023/09/27 04:36:36;;;;;;;15.88;8.48;;;;;;;8.46;100.00;99347.84;4999408;28;20100;-60
2023/09/27 04:39:05;;;;;;;20.30;9.35;;;;;;;8.45;100.00;99351.53;5012188;28;20057;-60
2023/09/27 04:41:30;;;;;;;14.10;8.45;;;;;;;8.42;100.00;99351.91;5011550;28;20378;-60
2023/09/27 04:43:57;;;;;;;18.60;10.85;;;;;;;8.40;100.00;99353.94;5018085;28;20037;-60
2023/09/27 04:46:22;;;;;;;28.67;11.63;;;;;;;8.44;100.00;99363.34;5003981;28;20044;-60
2023/09/27 04:48:48;;;;;;;24.00;11.63;;;;;;;8.46;100.00;99369.41;5009408;28;20018;-60
2023/09/27 04:51:14;;;;;;;23.60;11.07;;;;;;;8.44;100.00;99376.00;5011875;28;20108;-60
2023/09/27 04:53:39;;;;;;;23.48;11.02;;;;;;;8.39;100.00;99378.34;4995447;28;20108;-60
2023/09/27 04:56:06;;;;;;;29.80;11.23;;;;;;;8.34;100.00;99376.19;5004715;28;20112;-59
2023/09/27 04:58:32;;;;;;;19.17;9.68;;;;;;;8.33;100.00;99377.16;5001793;28;20033;-61
2023/09/27 05:00:57;;;;;;;22.90;9.38;;;;;;;8.23;100.00;99380.09;5012014;28;20366;-60
2023/09/27 05:03:23;;;;;;;23.95;10.10;;;;;;;8.16;100.00;99384.50;5017782;28;20029;-60
2023/09/27 05:05:48;;;;;;;21.38;9.93;;;;;;;8.09;100.00;99387.03;4992644;28;20029;-60
2023/09/27 05:08:14;;;;;;;18.85;9.95;;;;;;;8.08;100.00;99382.66;4999612;28;20033;-60
2023/09/27 05:10:39;;;;;;;26.63;9.77;;;;;;;8.07;100.00;99389.06;5005008;28;20030;-60
2023/09/27 05:13:05;;;;;;;18.25;9.40;;;;;;;8.09;100.00;99396.97;5010267;28;20030;-60
2023/09/27 05:15:32;;;;;;;21.15;9.20;;;;;;;8.17;100.00;99401.50;5000068;28;20124;-60
2023/09/27 05:17:58;;;;;;;19.90;9.85;;;;;;;8.21;100.00;99411.75;5011899;28;20065;-60
2023/09/27 05:20:23;;;;;;;16.13;8.88;;;;;;;8.25;100.00;99417.63;5003038;28;20053;-60
2023/09/27 05:22:48;;;;;;;14.15;8.60;;;;;;;8.30;100.00;99417.97;5004669;28;20033;-60
2023/09/27 05:25:15;;;;;;;12.13;6.90;;;;;;;8.24;100.00;99419.50;5001797;28;20477;-60
2023/09/27 05:27:40;;;;;;;10.25;7.25;;;;;;;8.23;100.00;99411.59;5003878;28;20025;-60
2023/09/27 05:30:15;;;;;;;12.02;8.10;;;;;;;8.29;100.00;99410.91;5000459;28;20386;-60
2023/09/27 05:32:42;;;;;;;15.23;9.82;;;;;;;8.38;100.00;99393.66;5004572;28;20061;-60
2023/09/27 05:35:09;;;;;;;22.15;8.77;;;;;;;8.49;100.00;99393.34;5000726;28;20037;-60
2023/09/27 05:37:35;;;;;;;21.25;9.43;;;;;;;8.58;100.00;99394.13;5010982;28;20037;-60
2023/09/27 05:40:04;;;;;;;22.10;9.90;;;;;;;8.71;100.00;99390.88;5005572;28;20026;-60
2023/09/27 05:42:30;;;;;;;15.27;8.38;;;;;;;8.85;100.00;99392.78;5000876;28;20440;-60
2023/09/27 05:44:56;;;;;;;20.10;9.25;;;;;;;8.99;100.00;99391.22;5001456;28;20037;-60
2023/09/27 05:47:24;;;;;;;30.05;11.02;;;;;;;9.07;100.00;99393.03;4999188;28;20030;-60
2023/09/27 05:49:49;;;;;;;15.73;8.95;;;;;;;9.21;100.00;99384.13;4994862;28;20022;-60
2023/09/27 05:52:16;;;;;;;19.27;8.60;;;;;;;9.46;100.00;99383.91;4994715;28;20129;-60
2023/09/27 05:54:42;;;;;;;18.20;7.80;;;;;;;9.76;100.00;99385.69;5000424;28;20018;-60
2023/09/27 05:57:08;;;;;;;14.10;9.43;;;;;;;10.40;100.00;99379.78;5000805;28;20026;-60
2023/09/27 05:59:34;;;;;;;14.23;8.90;;;;;;;12.58;100.00;99352.06;4995013;28;20155;-60
2023/09/27 06:01:59;;;;;;;10.88;6.90;;;;;;;15.03;100.00;99300.28;4994287;28;20026;-60
2023/09/27 06:04:25;;;;;;;10.38;6.35;;;;;;;16.57;100.00;99284.94;5002803;28;20056;-60
2023/09/27 06:06:51;;;;;;;11.32;5.85;;;;;;;17.59;100.00;99289.50;4997667;28;20030;-60
2023/09/27 06:09:17;;;;;;;11.65;5.85;;;;;;;17.92;100.00;99286.19;4998788;28;20760;-60
2023/09/27 06:11:43;;;;;;;8.45;5.03;;;;;;;17.72;100.00;99291.16;4994105;28;20045;-60
2023/09/27 06:14:10;;;;;;;13.23;4.90;;;;;;;18.74;100.00;99300.78;5003652;28;20430;-60
2023/09/27 06:16:39;;;;;;;9.63;4.75;;;;;;;18.83;100.00;99304.78;5010805;28;20041;-60
2023/09/27 06:19:05;;;;;;;;;;;;;;;19.96;100.00;99303.97;5003701;28;20477;-60
2023/09/27 06:21:30;;;;;;;9.23;4.63;;;;;;;20.05;100.00;99302.47;5007743;28;19959;-61
2023/09/27 06:23:55;;;;;;;8.85;4.57;;;;;;;20.42;100.00;99307.34;4996545;28;20046;-61
2023/09/27 06:26:22;;;;;;;6.90;4.07;;;;;;;20.77;99.30;99304.22;4997739;28;20082;-61
2023/09/27 06:28:48;;;;;;;8.20;3.58;;;;;;;20.87;100.00;99303.50;5007084;28;20430;-60
2023/09/27 06:31:13;;;;;;;6.93;4.43;;;;;;;20.78;100.00;99316.91;4996393;28;20035;-61
2023/09/27 06:33:39;;;;;;;8.77;3.60;;;;;;;20.76;100.00;99305.31;4995004;28;20101;-60
2023/09/27 06:36:11;;;;;;;7.25;4.10;;;;;;;21.69;95.44;99316.13;5004828;28;20037;-61
2023/09/27 06:41:15;;;;;;;5.88;3.60;;;;;;;23.25;78.33;99309.97;5002011;28;20050;-59
2023/09/27 06:43:41;;;;;;;5.97;3.22;;;;;;;23.87;72.91;99310.84;5008334;28;20540;-59
2023/09/27 06:46:10;;;;;;;7.97;3.47;;;;;;;25.07;66.85;99313.72;5005769;28;20034;-59
2023/09/27 06:48:35;;;;;;;;;;;;;;;25.58;62.89;99311.44;5023500;28;20158;-59
2023/09/27 06:51:01;;;;;;;5.88;3.50;;;;;;;25.16;63.26;99314.00;5023826;28;20012;-59
2023/09/27 06:53:26;;;;;;;5.95;3.42;;;;;;;26.66;59.79;99311.19;5027494;28;20432;-59
2023/09/27 06:55:53;;;;;;;8.18;3.45;;;;;;;26.21;59.54;99307.00;5027775;28;20025;-59
2023/09/27 06:58:23;;;;;;;4.38;3.38;;;;;;;27.27;56.72;99306.78;5025831;28;20026;-59
2023/09/27 07:00:50;;;;;;;5.40;2.95;;;;;;;28.74;52.62;99301.59;5028268;28;20021;-59
2023/09/27 07:03:15;;;;;;;6.35;3.40;;;;;;;28.45;52.76;99312.22;5027143;28;20024;-59
2023/09/27 07:05:41;;;;;;;4.20;3.00;;;;;;;27.75;53.24;99306.53;5026270;28;20124;-59
2023/09/27 07:08:06;;;;;;;4.97;3.00;;;;;;;26.60;54.30;99303.25;5030701;28;20017;-61
2023/09/27 07:10:32;;;;;;;8.00;3.50;;;;;;;26.44;56.11;99316.44;5024763;28;20037;-58
2023/09/27 07:12:58;;;;;;;7.57;3.20;;;;;;;26.25;56.73;99313.59;5022000;28;20021;-59
2023/09/27 07:15:24;;;;;;;7.55;3.17;;;;;;;27.30;55.40;99308.94;5029096;28;20121;-58
2023/09/27 07:17:49;;;;;;;6.15;3.60;;;;;;;26.92;56.27;99310.84;5047349;28;20115;-59
2023/09/27 07:22:44;;;;;;;7.57;3.00;;;;;;;26.68;57.91;99313.69;5019949;28;20022;-59
2023/09/27 07:25:14;;;;;;;8.63;3.10;;;;;;;27.04;57.76;99310.41;5024166;28;20265;-59
2023/09/27 07:27:41;;;;;;;3.58;2.85;;;;;;;28.76;53.79;99304.06;5027425;28;20421;-59
2023/09/27 07:30:10;;;;;;;8.25;3.10;;;;;;;30.22;49.47;99319.47;5013858;28;20021;-59
2023/09/27 07:32:37;;;;;;;7.35;2.97;;;;;;;30.83;48.89;99316.13;5027459;28;20029;-59
2023/09/27 07:35:07;;;;;;;5.13;2.72;;;;;;;31.05;48.18;99313.22;5019407;28;20017;-59
2023/09/27 07:37:34;;;;;;;5.28;3.05;;;;;;;31.35;47.78;99310.59;5014591;28;20118;-59
2023/09/27 07:39:59;;;;;;;3.92;2.58;;;;;;;33.27;44.53;99310.72;5031581;28;20086;-59
2023/09/27 07:42:25;;;;;;;6.47;2.78;;;;;;;31.55;46.44;99309.13;5022879;28;20457;-59
2023/09/27 07:44:50;;;;;;;6.45;2.75;;;;;;;32.30;45.46;99304.00;5016568;28;20021;-59
2023/09/27 07:47:16;;;;;;;5.63;2.72;;;;;;;32.76;44.15;99299.53;5027479;28;20073;-59
2023/09/27 07:49:41;;;;;;;4.38;2.72;;;;;;;30.58;47.42;99301.75;5029420;28;20044;-59
2023/09/27 07:52:06;;;;;;;5.03;2.65;;;;;;;30.36;47.71;99302.66;5026197;28;20018;-59
2023/09/27 07:54:33;;;;;;;6.70;2.90;;;;;;;30.40;49.28;99303.66;5027300;28;20079;-59
2023/09/27 07:56:59;;;;;;;7.43;2.63;;;;;;;31.39;47.14;99300.44;5019206;28;20025;-59
2023/09/27 07:59:25;;;;;;;3.72;2.63;;;;;;;31.84;45.95;99300.03;5028359;28;20021;-59
2023/09/27 08:01:52;;;;;;;4.38;2.85;;;;;;;33.67;44.48;99297.03;5036807;28;20480;-59
2023/09/27 08:04:19;;;;;;;4.70;2.80;;;;;;;32.33;46.06;99292.13;5016707;28;20465;-59
2023/09/27 08:06:46;;;;;;;7.93;3.58;;;;;;;31.79;46.67;99291.81;5037042;28;21223;-59
2023/09/27 08:09:15;;;;;;;10.38;3.88;;;;;;;31.32;47.66;99286.09;5023877;28;20025;-59
2023/09/27 08:11:41;;;;;;;9.35;3.50;;;;;;;30.82;48.25;99286.56;5020812;28;20465;-59
2023/09/27 08:14:08;;;;;;;14.35;3.65;;;;;;;31.37;47.77;99288.72;5027461;28;20128;-59
2023/09/27 08:16:35;;;;;;;3.85;2.67;;;;;;;32.82;47.37;99275.75;5027539;28;20056;-58
2023/09/27 08:19:01;;;;;;;5.25;2.97;;;;;;;34.66;43.94;99273.56;5030544;28;20112;-59
2023/09/27 08:21:26;;;;;;;5.35;2.72;;;;;;;34.03;44.58;99275.81;5019405;28;20104;-59
2023/09/27 08:23:52;;;;;;;5.32;2.35;;;;;;;34.84;43.04;99271.28;5028249;28;20033;-59
2023/09/27 08:26:18;;;;;;;4.30;2.60;;;;;;;34.22;43.54;99272.50;5028256;28;20022;-59
2023/09/27 08:28:44;;;;;;;9.32;2.90;;;;;;;35.41;42.42;99263.78;5013280;28;20509;-59
2023/09/27 08:31:09;;;;;;;6.38;2.55;;;;;;;36.18;41.17;99259.84;5018790;28;20022;-59
2023/09/27 08:33:35;;;;;;;3.75;2.50;;;;;;;35.48;41.22;99271.63;5034402;28;20030;-60
2023/09/27 08:36:00;;;;;;;5.07;2.40;;;;;;;37.39;38.70;99252.56;5022620;28;20028;-59
2023/09/27 08:38:26;;;;;;;6.53;2.47;;;;;;;34.72;41.75;99264.91;5025888;28;20373;-60
2023/09/27 08:40:52;;;;;;;3.75;2.25;;;;;;;36.80;39.86;99258.16;5026963;28;20076;-60
2023/09/27 08:43:20;;;;;;;4.45;2.60;;;;;;;37.92;37.46;99249.97;5038055;28;20026;-60
2023/09/27 08:45:46;;;;;;;;;;;;;;;37.14;38.27;99261.34;5023047;28;20418;-60
2023/09/27 08:48:20;;;;;;;5.93;2.58;;;;;;;35.94;39.68;99261.63;5026963;28;19913;-61
2023/09/27 08:50:48;;;;;;;5.20;2.25;;;;;;;37.14;38.19;99244.41;5030475;28;20144;-61
2023/09/27 08:53:13;;;;;;;;;;;;;;;36.94;38.50;99246.34;5021703;28;20435;-59
2023/09/27 08:55:45;;;;;;;4.10;1.92;;;;;;;38.51;36.48;99240.09;5018163;28;19918;-59
2023/09/27 08:58:13;;;;;;;4.68;2.30;;;;;;;38.80;36.43;99234.84;5030427;28;20024;-59
2023/09/27 09:00:41;;;;;;;3.03;1.88;;;;;;;39.07;34.97;99240.53;5020637;28;20030;-59
2023/09/27 09:03:06;;;;;;;4.53;2.20;;;;;;;37.06;37.51;99234.16;5020201;28;20030;-59
2023/09/27 09:05:33;;;;;;;5.47;2.22;;;;;;;37.84;36.89;99234.91;5019312;28;20064;-59
2023/09/27 09:08:00;;;;;;;3.40;2.40;;;;;;;36.54;37.27;99227.72;5021506;28;20032;-59
2023/09/27 09:10:27;;;;;;;4.38;2.03;;;;;;;35.93;38.60;99219.75;5016862;28;20177;-59
2023/09/27 09:12:53;;;;;;;5.53;2.00;;;;;;;38.24;36.76;99215.81;5025939;28;20033;-59
2023/09/27 09:15:41;;;;;;;3.95;2.05;;;;;;;37.88;36.39;99207.53;5027967;28;20036;-59
2023/09/27 09:18:11;;;;;;;3.45;1.77;;;;;;;37.65;36.81;99213.19;5023715;28;20104;-59
2023/09/27 09:20:55;;;;;;;9.55;2.33;;;;;;;37.56;37.34;99206.97;5019656;28;20101;-59
2023/09/27 09:23:31;;;;;;;4.10;2.13;;;;;;;37.76;36.27;99207.75;5018972;28;20128;-59
2023/09/27 09:25:57;;;;;;;4.53;2.08;;;;;;;38.39;36.33;99205.56;5020745;28;20025;-59
2023/09/27 09:28:24;;;;;;;5.97;1.90;;;;;;;37.90;36.22;99195.88;5022210;28;20457;-59
2023/09/27 09:30:50;;;;;;;7.15;2.33;;;;;;;37.49;36.57;99195.50;5012427;28;20428;-59
2023/09/27 09:33:17;;;;;;;6.63;2.30;;;;;;;36.26;38.35;99187.59;5024245;28;20056;-58
2023/09/27 09:35:43;;;;;;;6.75;2.50;;;;;;;36.36;38.08;99184.22;5030356;28;20029;-59
2023/09/27 09:38:10;;;;;;;4.22;2.00;;;;;;;38.31;36.38;99180.00;5017097;28;20022;-59
2023/09/27 09:40:55;;;;;;;3.60;1.92;;;;;;;38.34;37.13;99187.72;5023471;28;20021;-59
2023/09/27 09:43:30;;;;;;;4.15;1.80;;;;;;;36.37;37.83;99164.13;5032991;28;20040;-59
2023/09/27 09:45:55;;;;;;;2.78;1.80;;;;;;;37.28;37.42;99165.69;5026348;28;20021;-59
2023/09/27 09:48:23;;;;;;;3.58;1.80;;;;;;;37.46;37.14;99165.19;5042808;28;20389;-58
2023/09/27 09:50:49;;;;;;;3.05;1.98;;;;;;;39.96;34.39;99162.22;5030910;28;20432;-59
2023/09/27 09:53:16;;;;;;;5.85;2.00;;;;;;;39.83;35.10;99156.03;5034233;28;20532;-59
2023/09/27 09:55:43;;;;;;;4.35;2.03;;;;;;;40.02;34.66;99160.63;5021937;28;20045;-59
2023/09/27 09:58:11;;;;;;;2.13;1.60;;;;;;;40.26;34.05;99156.38;5015897;28;20584;-59
2023/09/27 10:00:41;;;;;;;2.47;1.60;;;;;;;40.31;34.52;99164.50;5026512;28;20061;-59
2023/09/27 10:03:07;;;;;;;2.80;1.67;;;;;;;40.46;34.03;99151.25;5021967;28;20330;-59
2023/09/27 10:05:38;;;;;;;4.22;1.83;;;;;;;40.31;34.78;99144.66;5023326;28;20061;-59
2023/09/27 10:08:07;;;;;;;2.30;1.55;;;;;;;41.43;32.45;99143.13;5023781;28;20445;-59
2023/09/27 10:10:35;;;;;;;2.78;1.50;;;;;;;39.60;33.55;99152.56;5030510;28;20063;-59
2023/09/27 10:13:04;;;;;;;3.53;1.80;;;;;;;38.78;34.52;99143.94;5037427;28;20080;-59
2023/09/27 10:15:33;;;;;;;1.98;1.55;;;;;;;40.60;33.93;99135.50;5020521;28;20743;-59
2023/09/27 10:18:23;;;;;;;1.77;1.52;;;;;;;39.49;34.79;99140.34;5027775;28;20022;-59
2023/09/27 10:21:01;;;;;;;2.63;1.70;;;;;;;41.12;32.54;99128.47;5019660;28;20037;-58
2023/09/27 10:23:57;;;;;;;3.20;1.70;;;;;;;38.90;34.29;99134.41;5030904;28;20336;-59
2023/09/27 10:26:28;;;;;;;5.80;1.52;;;;;;;40.80;33.40;99127.53;5037615;28;20033;-58
2023/09/27 10:29:18;;;;;;;6.38;1.80;;;;;;;40.62;34.12;99119.72;5030804;28;20153;-59
2023/09/27 10:31:56;;;;;;;4.60;1.70;;;;;;;40.88;33.25;99112.16;5021556;28;20068;-58
2023/09/27 10:34:27;;;;;;;3.08;1.63;;;;;;;41.11;32.51;99094.78;5027711;28;20366;-60
2023/09/27 10:36:54;;;;;;;6.22;1.70;;;;;;;39.63;34.82;99092.31;5038317;28;20025;-59
2023/09/27 10:39:21;;;;;;;3.03;1.60;;;;;;;39.79;34.10;99097.72;5028825;28;20033;-60
2023/09/27 10:41:48;;;;;;;3.63;1.83;;;;;;;40.22;34.25;99087.53;5028102;28;20025;-59
2023/09/27 10:44:30;;;;;;;3.90;1.83;;;;;;;41.92;32.53;99090.44;5030806;28;20036;-60
2023/09/27 10:46:56;;;;;;;4.78;1.90;;;;;;;40.28;32.73;99085.94;5037923;28;20025;-59
2023/09/27 10:49:27;;;;;;;3.05;1.70;;;;;;;40.41;32.44;99085.59;5019284;28;20477;-59
2023/09/27 10:51:55;;;;;;;1.92;1.30;;;;;;;41.02;31.69;99088.66;5026535;28;20492;-59
2023/09/27 10:54:22;;;;;;;4.15;1.42;;;;;;;41.20;32.23;99091.56;5025186;28;20040;-60
2023/09/27 10:56:53;;;;;;;10.00;1.60;;;;;;;41.31;32.78;99089.56;5026620;28;20028;-60
2023/09/27 10:59:36;;;;;;;2.97;1.40;;;;;;;41.44;30.61;99084.28;5023794;28;20021;-60
2023/09/27 11:02:03;;;;;;;1.77;1.35;;;;;;;41.20;31.78;99085.91;5022657;28;20021;-59
2023/09/27 11:04:30;;;;;;;2.38;1.30;;;;;;;41.49;31.71;99086.72;5042777;28;20025;-58
2023/09/27 11:06:57;;;;;;;1.70;1.10;;;;;;;39.82;32.55;99082.75;5026322;28;20021;-60
2023/09/27 11:09:23;;;;;;;3.42;1.10;;;;;;;40.46;32.35;99079.53;5032767;28;20345;-60
2023/09/27 11:12:00;;;;;;;1.60;1.20;;;;;;;40.36;31.09;99083.94;5017989;28;20084;-60
2023/09/27 11:14:32;;;;;;;2.47;1.42;;;;;;;41.47;31.20;99084.28;5023828;28;20041;-60
2023/09/27 11:17:25;;;;;;;1.60;1.27;;;;;;;40.79;30.81;99080.50;5029228;28;20105;-59
2023/09/27 11:19:52;;;;;;;2.08;1.17;;;;;;;37.81;32.95;99079.50;5022872;28;20487;-59
2023/09/27 11:22:30;;;;;;;7.10;1.60;;;;;;;37.84;33.97;99081.59;5022593;28;20497;-59
2023/09/27 11:24:56;;;;;;;3.78;1.20;;;;;;;40.66;32.24;99069.50;5019577;28;20025;-59
2023/09/27 11:27:22;;;;;;;4.47;1.30;;;;;;;41.29;31.58;99072.09;5044658;28;20458;-58
2023/09/27 11:29:52;;;;;;;2.97;1.15;;;;;;;42.41;30.02;99065.94;5021002;28;20128;-59
2023/09/27 11:32:18;;;;;;;5.85;1.05;;;;;;;43.02;29.82;99062.00;5039613;28;20029;-59
2023/09/27 11:34:56;;;;;;;2.83;1.02;;;;;;;43.18;29.03;99058.66;5026289;28;20480;-59